Time;durP1;ratioP1;P1;durP2;ratioP2;P2;SDS_P1;SDS_P2;PMS_P1;PMS_P2;Temp;Humidity;BMP_temperature;BMP_pressure;BME280_temperature;BME280_humidity;BME280_pressure;Samples;Min_cycle;Max_cycle;Signal;HPM_P1;HPM_P2
2022/09/01 00:02:32;;;;;;;6.45;3.35;;;;;;;26.14;61.21;100715.22;5142498;27;20058;-78
2022/09/01 00:05:00;;;;;;;7.38;3.03;;;;;;;26.14;60.90;100715.22;5135864;27;20390;-78
2022/09/01 00:07:29;;;;;;;4.80;3.40;;;;;;;26.14;60.95;100712.50;5135152;27;20058;-78
2022/09/01 00:09:58;;;;;;;3.28;2.78;;;;;;;26.16;60.91;100704.19;5135187;27;20043;-79
2022/09/01 00:12:27;;;;;;;6.00;3.70;;;;;;;26.15;61.40;100689.78;5134413;27;20058;-79
2022/09/01 00:14:54;;;;;;;4.90;3.40;;;;;;;26.14;61.40;100693.53;5135583;27;20040;-79
2022/09/01 00:17:21;;;;;;;6.38;4.45;;;;;;;26.16;61.39;100699.59;5134965;27;20054;-79
2022/09/01 00:19:49;;;;;;;4.10;3.67;;;;;;;26.16;61.43;100696.03;5134878;27;20478;-79
2022/09/01 00:22:17;;;;;;;4.25;3.85;;;;;;;26.16;61.60;100693.31;5135561;27;20043;-79
2022/09/01 00:24:44;;;;;;;5.00;3.58;;;;;;;26.16;61.74;100694.16;5134304;27;20422;-79
2022/09/01 00:27:11;;;;;;;4.22;3.83;;;;;;;26.16;61.92;100705.03;5134888;27;20051;-79
2022/09/01 00:29:39;;;;;;;3.97;3.58;;;;;;;26.16;61.70;100705.03;5135156;27;20035;-79
2022/09/01 00:32:11;;;;;;;3.95;3.55;;;;;;;26.17;61.79;100697.72;5134888;27;20043;-79
2022/09/01 00:34:39;;;;;;;4.50;3.60;;;;;;;26.17;61.93;100703.16;5134728;27;20486;-78
2022/09/01 00:37:07;;;;;;;4.07;3.70;;;;;;;26.17;61.86;100701.31;5045123;27;20042;-79
2022/09/01 00:39:34;;;;;;;5.50;3.78;;;;;;;26.18;61.67;100702.16;5011784;28;20413;-79
2022/09/01 00:42:02;;;;;;;5.55;3.95;;;;;;;26.17;61.56;100695.88;5009923;28;20054;-79
2022/09/01 00:44:30;;;;;;;5.85;3.40;;;;;;;26.18;61.56;100694.00;5017478;27;20056;-79
2022/09/01 00:46:58;;;;;;;3.60;3.03;;;;;;;26.18;61.73;100683.16;5030962;28;20538;-79
2022/09/01 00:49:30;;;;;;;5.28;3.95;;;;;;;26.18;61.84;100685.88;5029598;28;20393;-79
2022/09/01 00:52:09;;;;;;;4.65;3.95;;;;;;;26.18;62.12;100680.44;5030713;28;20052;-79
2022/09/01 00:54:43;;;;;;;4.85;4.15;;;;;;;26.18;62.31;100683.16;5031127;28;20042;-79
2022/09/01 00:57:11;;;;;;;6.82;4.57;;;;;;;26.19;62.08;100699.25;5029555;28;20054;-79
2022/09/01 00:59:48;;;;;;;6.68;4.50;;;;;;;26.19;62.44;100695.69;5029542;28;20060;-79
2022/09/01 01:02:16;;;;;;;5.78;4.70;;;;;;;26.18;62.52;100703.00;5031172;28;20065;-78
2022/09/01 01:04:45;;;;;;;5.63;4.45;;;;;;;26.19;62.35;100690.25;5030237;28;20042;-79
2022/09/01 01:07:14;;;;;;;5.97;4.15;;;;;;;26.20;62.41;100689.22;5030375;28;20484;-79
2022/09/01 01:09:43;;;;;;;6.13;4.00;;;;;;;26.20;62.50;100687.34;5031079;28;20045;-79
2022/09/01 01:12:12;;;;;;;6.25;5.25;;;;;;;26.19;62.74;100691.09;5031088;28;20045;-79
2022/09/01 01:14:40;;;;;;;5.43;4.15;;;;;;;26.20;62.66;100690.06;5030620;28;20052;-78
2022/09/01 01:17:12;;;;;;;6.88;5.05;;;;;;;26.19;62.46;100687.53;5030469;28;20061;-78
2022/09/01 01:25:32;;;;;;;4.80;4.30;;;;;;;26.19;62.40;100693.81;5029095;28;20049;-78
2022/09/01 01:28:15;;;;;;;5.15;4.65;;;;;;;26.20;62.50;100705.50;5029132;28;20056;-78
2022/09/01 01:30:51;;;;;;;4.53;4.13;;;;;;;26.20;62.69;100709.06;5013044;28;20127;-78
2022/09/01 01:33:21;;;;;;;5.53;4.60;;;;;;;26.20;62.50;100694.66;5028604;28;20497;-78
2022/09/01 01:35:52;;;;;;;5.43;4.73;;;;;;;26.19;62.80;100696.53;5028896;28;20053;-78
2022/09/01 01:38:21;;;;;;;5.53;4.50;;;;;;;26.20;62.80;100698.22;5013543;28;20057;-78
2022/09/01 01:40:54;;;;;;;4.63;4.20;;;;;;;26.20;62.70;100697.38;5008882;28;20049;-78
2022/09/01 01:43:23;;;;;;;5.85;5.30;;;;;;;26.20;62.97;100692.78;5009279;28;20053;-78
2022/09/01 01:45:53;;;;;;;5.22;4.50;;;;;;;26.20;62.78;100697.38;5009172;28;20050;-78
2022/09/01 01:48:27;;;;;;;5.55;4.72;;;;;;;26.21;62.81;100693.63;5009599;28;20061;-79
2022/09/01 01:50:58;;;;;;;6.70;4.55;;;;;;;26.20;62.53;100691.94;5009341;28;20050;-79
2022/09/01 01:53:26;;;;;;;5.22;4.22;;;;;;;26.21;62.76;100699.91;5010316;28;20056;-79
2022/09/01 01:55:55;;;;;;;4.95;4.45;;;;;;;26.21;62.79;100702.63;5009271;28;20124;-79
2022/09/01 01:58:24;;;;;;;8.52;5.03;;;;;;;26.22;62.66;100717.03;5009082;28;20512;-79
2022/09/01 02:00:53;;;;;;;4.88;4.32;;;;;;;26.21;62.79;100713.50;5096860;28;20497;-79
2022/09/01 02:03:24;;;;;;;5.65;4.47;;;;;;;26.21;62.41;100702.63;5132854;27;20051;-79
2022/09/01 02:05:53;;;;;;;4.90;3.95;;;;;;;26.22;62.63;100704.31;5132562;27;20054;-79
2022/09/01 02:08:24;;;;;;;5.45;4.40;;;;;;;26.21;62.38;100702.63;5132712;27;20050;-79
2022/09/01 02:10:54;;;;;;;6.22;4.40;;;;;;;26.22;62.70;100708.91;5133017;27;20043;-79
2022/09/01 02:13:27;;;;;;;5.85;4.90;;;;;;;26.22;62.73;100712.47;5115834;28;20047;-79
2022/09/01 02:15:54;;;;;;;;;;;;;;;26.22;63.04;100706.19;5134414;28;20054;-79
2022/09/01 02:18:35;;;;;;;5.65;5.00;;;;;;;26.22;63.07;100703.47;5132492;27;19919;-79
2022/09/01 02:21:09;;;;;;;6.28;5.65;;;;;;;26.22;63.47;100689.91;5132687;27;20055;-79
2022/09/01 02:23:46;;;;;;;6.82;5.70;;;;;;;26.22;63.16;100708.91;5133974;28;20048;-79
2022/09/01 02:26:15;;;;;;;4.82;4.20;;;;;;;26.21;62.94;100710.78;5132668;27;20066;-79
2022/09/01 02:28:48;;;;;;;7.78;4.90;;;;;;;26.22;62.90;100714.34;5132478;27;20047;-79
2022/09/01 02:31:26;;;;;;;5.10;4.55;;;;;;;26.22;63.02;100715.16;5132625;27;20054;-79
2022/09/01 02:33:57;;;;;;;5.13;4.63;;;;;;;26.24;62.94;100717.69;5132543;27;20398;-79
2022/09/01 02:36:24;;;;;;;6.70;5.25;;;;;;;26.23;62.86;100713.28;5136640;27;20536;-79
2022/09/01 02:38:53;;;;;;;6.60;4.60;;;;;;;26.22;62.84;100714.34;5058986;27;20054;-79
2022/09/01 02:41:25;;;;;;;5.55;4.80;;;;;;;26.22;62.89;100706.19;5029301;28;20057;-79
2022/09/01 02:43:53;;;;;;;5.90;4.65;;;;;;;26.23;63.00;100702.44;5020036;28;20058;-78
2022/09/01 02:46:22;;;;;;;5.78;5.15;;;;;;;26.23;62.92;100708.72;5030542;27;20041;-79
2022/09/01 02:48:51;;;;;;;6.82;4.97;;;;;;;26.23;62.89;100702.44;5032885;28;20516;-80
2022/09/01 02:51:24;;;;;;;5.43;4.93;;;;;;;26.23;62.79;100697.00;5031681;28;20064;-79
2022/09/01 02:53:52;;;;;;;;;;;;;;;26.23;63.11;100705.16;5033447;28;20049;-79
2022/09/01 02:56:23;;;;;;;8.75;5.32;;;;;;;26.24;63.05;100698.69;5031458;28;19921;-79
2022/09/01 02:58:54;;;;;;;7.00;5.45;;;;;;;26.24;63.16;100693.28;5031525;28;20053;-80
2022/09/01 03:01:29;;;;;;;8.45;7.65;;;;;;;26.24;63.42;100695.97;5031525;28;20398;-80
2022/09/01 03:04:02;;;;;;;7.90;7.20;;;;;;;26.22;63.88;100684.47;5031467;28;20069;-81
2022/09/01 03:06:32;;;;;;;8.80;7.63;;;;;;;26.21;63.66;100686.34;5032466;28;20404;-80
2022/09/01 03:09:05;;;;;;;8.90;7.90;;;;;;;26.20;63.53;100694.66;5031180;28;20275;-79
2022/09/01 03:11:34;;;;;;;9.27;8.35;;;;;;;26.19;63.85;100698.41;5032217;28;20057;-79
2022/09/01 03:14:02;;;;;;;7.70;7.00;;;;;;;26.19;63.76;100707.38;5031151;28;20049;-79
2022/09/01 03:16:30;;;;;;;10.88;7.80;;;;;;;26.18;64.36;100716.56;5031747;28;20053;-79
2022/09/01 03:18:58;;;;;;;9.70;8.80;;;;;;;26.17;64.47;100711.28;5030725;28;20052;-79
2022/09/01 03:21:25;;;;;;;9.85;8.90;;;;;;;26.18;64.31;100713.00;5031139;28;20049;-79
2022/09/01 03:23:53;;;;;;;10.32;9.32;;;;;;;26.17;64.28;100700.44;5030887;28;20050;-80
2022/09/01 03:26:22;;;;;;;9.30;8.30;;;;;;;26.16;64.11;100690.63;5030543;28;20416;-79
2022/09/01 03:28:51;;;;;;;10.40;8.93;;;;;;;26.16;64.51;100685.19;5030838;28;20049;-79
2022/09/01 03:31:19;;;;;;;10.82;8.07;;;;;;;26.16;64.18;100682.47;5032020;28;20048;-80
2022/09/01 03:33:49;;;;;;;10.65;9.43;;;;;;;26.16;64.22;100679.75;5031078;28;20373;-79
2022/09/01 03:36:23;;;;;;;10.07;8.15;;;;;;;26.15;64.00;100681.63;5031333;28;20053;-79
2022/09/01 03:38:51;;;;;;;10.25;8.65;;;;;;;26.14;64.38;100688.94;5026936;28;20147;-79
2022/09/01 03:41:27;;;;;;;14.25;9.88;;;;;;;26.15;64.32;100703.34;5010359;28;20050;-79
2022/09/01 03:43:56;;;;;;;11.40;10.23;;;;;;;26.13;64.43;100698.09;5010345;28;20061;-79
2022/09/01 03:46:30;;;;;;;11.40;10.18;;;;;;;26.12;64.49;100693.69;5011136;28;20061;-79
2022/09/01 03:49:06;;;;;;;10.05;8.50;;;;;;;26.12;64.23;100692.84;5010914;28;20050;-80
2022/09/01 03:51:37;;;;;;;9.00;8.13;;;;;;;26.12;64.40;100695.56;5010729;28;20050;-79
2022/09/01 03:54:06;;;;;;;10.38;8.32;;;;;;;26.12;64.22;100698.25;5010993;28;20505;-79
2022/09/01 03:56:33;;;;;;;9.90;8.10;;;;;;;26.12;64.30;100693.69;5010930;28;20520;-79
2022/09/01 03:59:01;;;;;;;11.90;7.97;;;;;;;26.12;64.36;100698.25;5010639;28;20391;-79
2022/09/01 04:01:34;;;;;;;9.30;7.97;;;;;;;26.13;64.24;100694.56;5025506;27;20058;-80
2022/09/01 04:04:05;;;;;;;11.30;10.13;;;;;;;26.13;64.59;100698.09;5030519;28;20057;-80
2022/09/01 04:06:32;;;;;;;8.52;7.75;;;;;;;26.13;64.42;100694.56;5031287;28;20485;-79
2022/09/01 04:09:01;;;;;;;10.63;9.52;;;;;;;26.12;64.35;100682.81;5030486;28;20412;-79
2022/09/01 04:11:32;;;;;;;10.30;8.45;;;;;;;26.12;64.35;100688.25;5031509;28;20049;-79
2022/09/01 04:14:00;;;;;;;8.85;7.95;;;;;;;26.11;64.03;100686.56;5030089;28;20064;-79
2022/09/01 04:19:25;;;;;;;9.88;8.57;;;;;;;26.12;64.04;100690.13;5029990;28;20611;-79
2022/09/01 04:21:59;;;;;;;10.02;9.02;;;;;;;26.11;64.12;100681.16;5030235;28;20061;-79
2022/09/01 04:24:31;;;;;;;10.98;9.90;;;;;;;26.11;64.15;100691.16;5029992;28;20056;-79
2022/09/01 04:27:01;;;;;;;13.20;9.82;;;;;;;26.10;64.15;100697.63;5029923;28;20045;-79
2022/09/01 04:29:30;;;;;;;11.38;10.00;;;;;;;26.09;64.19;100690.47;5030186;28;20053;-79
2022/09/01 04:32:06;;;;;;;9.35;8.43;;;;;;;26.09;64.16;100683.22;5029861;28;20060;-78
2022/09/01 04:34:38;;;;;;;9.80;8.80;;;;;;;26.09;63.98;100690.47;5029993;28;20049;-79
2022/09/01 04:37:09;;;;;;;10.90;9.80;;;;;;;26.08;64.02;100691.50;5029953;28;20045;-79
2022/09/01 04:39:37;;;;;;;10.85;9.75;;;;;;;26.09;64.08;100690.47;5028339;28;20052;-79
2022/09/01 04:42:07;;;;;;;10.75;9.25;;;;;;;26.08;64.00;100686.09;5015102;28;20147;-80
2022/09/01 04:44:35;;;;;;;9.70;8.77;;;;;;;26.08;64.03;100678.78;5011180;28;20428;-79
2022/09/01 04:47:09;;;;;;;13.90;10.65;;;;;;;26.06;64.10;100672.72;5027266;27;20054;-79
2022/09/01 04:49:37;;;;;;;10.15;9.02;;;;;;;26.06;64.18;100675.44;5013731;28;20061;-79
2022/09/01 04:52:04;;;;;;;9.13;8.23;;;;;;;26.06;63.97;100675.44;5029610;28;20045;-79
2022/09/01 04:54:33;;;;;;;10.48;8.27;;;;;;;26.06;64.05;100675.44;5029539;28;20080;-79
2022/09/01 04:57:01;;;;;;;11.05;9.80;;;;;;;26.06;63.99;100678.13;5029591;28;20046;-79
2022/09/01 04:59:35;;;;;;;12.25;11.05;;;;;;;26.06;64.16;100677.28;5029672;28;20064;-79
2022/09/01 05:02:06;;;;;;;10.35;9.35;;;;;;;26.04;63.99;100672.03;5029219;28;20050;-79
2022/09/01 05:04:36;;;;;;;12.55;9.35;;;;;;;26.04;63.76;100672.03;5030030;28;20589;-79
2022/09/01 05:07:04;;;;;;;9.25;8.27;;;;;;;26.04;63.91;100672.03;5029004;28;20045;-79
2022/09/01 05:09:36;;;;;;;10.05;9.05;;;;;;;26.04;64.04;100672.03;5013152;28;20496;-79
2022/09/01 05:12:35;;;;;;;8.98;8.18;;;;;;;26.04;63.78;100682.88;5029226;28;20053;-80
2022/09/01 05:15:08;;;;;;;11.77;9.38;;;;;;;26.05;64.06;100687.31;5030597;28;20493;-80
2022/09/01 05:17:37;;;;;;;10.45;9.15;;;;;;;26.04;63.96;100682.03;5029436;28;20408;-80
2022/09/01 05:20:06;;;;;;;10.88;9.88;;;;;;;26.04;64.02;100685.59;5028988;28;20496;-80
2022/09/01 05:22:34;;;;;;;12.90;11.20;;;;;;;26.03;64.16;100680.38;5031046;28;20064;-79
2022/09/01 05:25:12;;;;;;;11.10;10.00;;;;;;;26.04;63.89;100673.91;5029339;28;20053;-80
2022/09/01 05:27:51;;;;;;;12.07;10.73;;;;;;;26.02;63.96;100676.81;5013292;28;20496;-80
2022/09/01 05:30:21;;;;;;;11.68;10.60;;;;;;;26.01;64.12;100680.56;5029393;28;20062;-80
2022/09/01 05:32:49;;;;;;;9.25;8.35;;;;;;;26.01;63.96;100683.25;5029275;28;20050;-81
2022/09/01 05:35:17;;;;;;;10.38;9.27;;;;;;;26.01;64.04;100685.97;5028948;28;20053;-80
2022/09/01 05:37:45;;;;;;;11.20;9.32;;;;;;;26.02;64.12;100692.25;5029105;28;20404;-80
2022/09/01 05:40:14;;;;;;;10.55;9.45;;;;;;;26.02;64.11;100695.81;5029109;28;20053;-80
2022/09/01 05:42:44;;;;;;;11.30;10.20;;;;;;;26.01;64.17;100702.25;5017686;28;20053;-80
2022/09/01 05:45:13;;;;;;;13.00;10.57;;;;;;;26.01;64.17;100710.41;5029726;28;20068;-80
2022/09/01 05:47:40;;;;;;;12.10;10.25;;;;;;;25.98;64.20;100705.31;5029137;28;20050;-80
2022/09/01 05:50:10;;;;;;;9.85;8.95;;;;;;;25.99;63.98;100717.84;5028907;28;20053;-80
2022/09/01 05:52:46;;;;;;;11.05;9.80;;;;;;;26.00;64.10;100721.41;5028929;28;20053;-80
2022/09/01 05:55:15;;;;;;;9.60;8.70;;;;;;;26.00;63.80;100715.97;5028453;28;20404;-79
2022/09/01 05:57:46;;;;;;;8.88;7.97;;;;;;;26.00;63.94;100719.53;5028805;28;20057;-80
2022/09/01 06:00:16;;;;;;;9.23;8.23;;;;;;;26.00;63.83;100714.09;5028312;28;20061;-79
2022/09/01 06:02:47;;;;;;;10.02;8.98;;;;;;;26.01;63.79;100729.38;5015526;28;20058;-80
2022/09/01 06:05:19;;;;;;;9.32;8.38;;;;;;;26.01;63.99;100731.22;5028914;28;20054;-80
2022/09/01 06:07:49;;;;;;;8.82;7.93;;;;;;;26.02;63.74;100741.91;5028642;28;20057;-79
2022/09/01 06:10:17;;;;;;;8.27;7.47;;;;;;;26.02;63.83;100741.06;5030119;28;20076;-79
2022/09/01 06:12:44;;;;;;;8.93;8.05;;;;;;;26.03;63.94;100749.03;5032235;28;20050;-79
2022/09/01 06:15:19;;;;;;;9.50;8.18;;;;;;;26.04;63.95;100749.88;5032002;28;20060;-79
2022/09/01 06:17:51;;;;;;;9.95;8.80;;;;;;;26.04;63.86;100747.16;5032174;28;20412;-79
2022/09/01 06:20:18;;;;;;;7.82;7.13;;;;;;;26.04;63.84;100756.13;5032087;28;20049;-79
2022/09/01 06:22:46;;;;;;;8.63;7.82;;;;;;;26.03;64.23;100751.75;5032224;28;20074;-79
2022/09/01 06:25:17;;;;;;;9.77;8.85;;;;;;;26.04;63.86;100756.13;5031654;28;20123;-78
2022/09/01 06:27:47;;;;;;;8.88;8.00;;;;;;;26.03;64.07;100757.16;5033172;28;20041;-78
2022/09/01 06:30:19;;;;;;;11.02;9.95;;;;;;;26.03;64.07;100754.44;5032239;28;20053;-78
2022/09/01 06:33:12;;;;;;;11.00;10.00;;;;;;;26.03;64.16;100751.75;5032690;28;20054;-81
2022/09/01 06:35:46;;;;;;;12.23;10.98;;;;;;;26.03;64.05;100759.03;5031817;28;20056;-80
2022/09/01 06:38:16;;;;;;;10.80;8.75;;;;;;;26.02;63.98;100752.75;5031228;28;20053;-79
2022/09/01 06:40:47;;;;;;;8.60;7.80;;;;;;;26.04;64.03;100758.00;5031890;28;20404;-80
2022/09/01 06:43:18;;;;;;;10.40;9.27;;;;;;;26.04;64.13;100760.72;5018874;28;20041;-81
2022/09/01 06:45:53;;;;;;;10.95;8.25;;;;;;;26.04;64.08;100766.97;5011956;28;20053;-82
2022/09/01 06:48:23;;;;;;;10.40;9.40;;;;;;;26.03;64.18;100754.44;5132369;27;20043;-82
2022/09/01 06:51:02;;;;;;;10.73;9.48;;;;;;;26.03;64.18;100759.88;5136389;27;20051;-82
2022/09/01 06:53:55;;;;;;;11.95;10.45;;;;;;;26.03;64.15;100768.00;5135638;27;20051;-82
2022/09/01 06:56:30;;;;;;;19.17;17.17;;;;;;;26.01;64.78;100767.38;5136083;27;20047;-82
2022/09/01 06:59:04;;;;;;;20.40;18.42;;;;;;;25.99;64.97;100772.09;5111740;27;20053;-82
2022/09/01 07:01:34;;;;;;;20.08;17.67;;;;;;;25.94;65.08;100765.53;5069421;27;20125;-80
2022/09/01 07:04:02;;;;;;;23.48;18.05;;;;;;;25.89;65.10;100777.75;5032062;27;20056;-82
2022/09/01 07:06:40;;;;;;;17.80;16.00;;;;;;;25.81;64.25;100783.22;5030884;27;20058;-80
2022/09/01 07:09:36;;;;;;;17.70;14.95;;;;;;;25.77;64.01;100781.88;5032310;28;20053;-83
2022/09/01 07:12:46;;;;;;;17.92;16.23;;;;;;;25.71;64.05;100787.94;5031488;27;20477;-82
2022/09/01 07:15:38;;;;;;;15.80;13.88;;;;;;;25.65;63.29;100791.38;5032674;28;20396;-85
2022/09/01 07:18:27;;;;;;;;;;;;;;;25.58;62.16;100790.38;5031739;27;20518;-84
2022/09/01 07:20:56;;;;;;;11.10;9.25;;;;;;;25.54;61.41;100800.72;5030365;28;19928;-84
2022/09/01 07:23:45;;;;;;;12.50;8.50;;;;;;;25.52;61.15;100794.63;5031564;27;20058;-84
2022/09/01 07:26:34;;;;;;;7.68;6.93;;;;;;;25.52;61.16;100794.63;5032119;28;20053;-84
2022/09/01 07:29:04;;;;;;;7.43;6.65;;;;;;;25.52;61.00;100800.06;5032150;28;20052;-83
2022/09/01 07:31:42;;;;;;;8.80;6.03;;;;;;;25.53;60.02;100801.75;5031493;28;20120;-86
2022/09/01 07:34:31;;;;;;;10.43;8.20;;;;;;;25.52;59.60;100801.91;5032837;28;20064;-81
2022/09/01 07:37:10;;;;;;;10.27;8.05;;;;;;;25.50;59.27;100806.66;5030383;28;20041;-79
2022/09/01 07:39:58;;;;;;;9.43;6.55;;;;;;;25.49;58.82;100799.56;5030562;28;20053;-80
2022/09/01 07:42:56;;;;;;;9.32;6.40;;;;;;;25.47;58.29;100805.13;5027744;28;20053;-80
2022/09/01 07:45:58;;;;;;;7.32;5.97;;;;;;;25.45;58.73;100796.34;5012233;28;20057;-79
2022/09/01 07:48:27;;;;;;;7.60;5.40;;;;;;;25.44;58.95;100794.63;5012688;28;20038;-81
2022/09/01 07:51:18;;;;;;;6.55;5.32;;;;;;;25.42;59.21;100799.41;5011568;28;20431;-79
2022/09/01 07:54:04;;;;;;;6.40;5.70;;;;;;;25.44;59.36;100794.63;5011335;28;20065;-77
2022/09/01 07:56:33;;;;;;;6.68;5.53;;;;;;;25.47;59.40;100788.03;5011011;28;20409;-78
2022/09/01 07:59:09;;;;;;;7.80;5.97;;;;;;;25.45;59.19;100790.94;5010819;28;20425;-75
2022/09/01 08:01:54;;;;;;;7.85;5.57;;;;;;;25.44;59.24;100789.22;5010908;28;20054;-79
2022/09/01 08:04:22;;;;;;;7.82;5.53;;;;;;;25.43;58.92;100790.25;5033348;27;20049;-77
2022/09/01 08:06:50;;;;;;;6.30;5.40;;;;;;;25.42;58.97;100793.97;5030440;28;20050;-76
2022/09/01 08:09:18;;;;;;;7.18;5.50;;;;;;;25.42;59.07;100788.56;5014710;28;20045;-78
2022/09/01 08:11:59;;;;;;;6.03;5.43;;;;;;;25.42;59.23;100785.00;5011176;28;20387;-80
2022/09/01 08:14:32;;;;;;;8.32;6.65;;;;;;;25.41;59.41;100784.16;5010888;28;20061;-82
2022/09/01 08:17:00;;;;;;;8.07;6.40;;;;;;;25.42;59.55;100780.41;5011808;28;20421;-81
2022/09/01 08:19:45;;;;;;;8.63;5.18;;;;;;;25.42;59.86;100785.84;5010739;28;20059;-79
2022/09/01 08:22:24;;;;;;;8.32;5.03;;;;;;;25.42;59.85;100783.13;5011783;28;20046;-79
2022/09/01 08:24:57;;;;;;;6.70;5.35;;;;;;;25.43;60.25;100782.09;5010704;28;20060;-81
2022/09/01 08:27:24;;;;;;;7.53;4.78;;;;;;;25.46;60.21;100776.34;5010833;28;20519;-82
2022/09/01 08:29:52;;;;;;;6.00;4.97;;;;;;;25.49;60.25;100786.00;4994826;28;20057;-81
2022/09/01 08:32:20;;;;;;;6.47;5.25;;;;;;;25.51;60.58;100792.94;5010521;28;20053;-81
2022/09/01 08:34:48;;;;;;;6.65;4.97;;;;;;;25.50;60.46;100795.81;5011447;28;20504;-81
2022/09/01 08:37:16;;;;;;;7.25;4.72;;;;;;;25.51;60.38;100801.06;5011602;28;20050;-79
2022/09/01 08:39:45;;;;;;;5.32;4.63;;;;;;;25.51;60.30;100801.06;5011001;28;20057;-79
2022/09/01 08:42:30;;;;;;;8.27;4.93;;;;;;;25.52;60.21;100807.31;5011279;28;20436;-82
2022/09/01 08:45:27;;;;;;;9.38;4.63;;;;;;;25.53;60.14;100806.31;5013850;28;20046;-80
2022/09/01 08:47:59;;;;;;;6.22;5.32;;;;;;;25.53;60.43;100804.47;5038273;27;20378;-79
2022/09/01 08:51:05;;;;;;;5.47;4.53;;;;;;;25.53;60.28;100799.03;5135399;27;20054;-79
2022/09/01 08:54:03;;;;;;;6.28;4.57;;;;;;;25.54;60.53;100811.56;5136516;27;20513;-78
2022/09/01 08:56:35;;;;;;;8.25;5.00;;;;;;;25.55;60.43;100806.97;5116873;27;20050;-79
2022/09/01 08:59:08;;;;;;;7.05;5.13;;;;;;;25.55;60.48;100812.41;5133554;27;20525;-81
2022/09/01 09:02:26;;;;;;;5.22;4.32;;;;;;;25.55;60.24;100807.81;5134228;27;20047;-78
2022/09/01 09:05:06;;;;;;;5.80;4.60;;;;;;;25.56;60.27;100808.66;5129136;27;20059;-82
2022/09/01 09:08:04;;;;;;;6.65;5.22;;;;;;;25.56;60.28;100809.53;5134018;27;20077;-80
2022/09/01 09:10:55;;;;;;;9.40;5.97;;;;;;;25.55;60.37;100821.38;5134226;27;20055;-80
2022/09/01 09:14:06;;;;;;;8.35;6.53;;;;;;;25.54;60.11;100808.84;5136708;27;20039;-83
2022/09/01 09:16:45;;;;;;;7.15;5.60;;;;;;;25.52;59.90;100804.59;5074650;28;20056;-79
2022/09/01 09:19:29;;;;;;;8.77;5.28;;;;;;;25.51;60.10;100801.06;5091794;28;20056;-83
2022/09/01 09:22:00;;;;;;;6.63;4.90;;;;;;;25.51;60.08;100798.34;5092119;28;20048;-80
2022/09/01 09:24:59;;;;;;;6.18;5.55;;;;;;;25.51;60.00;100803.78;5092053;28;20064;-79
2022/09/01 09:27:36;;;;;;;5.97;4.22;;;;;;;25.51;60.03;100806.47;5020895;28;20446;-80
2022/09/01 09:30:11;;;;;;;9.10;4.70;;;;;;;25.51;60.31;100805.63;4990334;28;20429;-81
2022/09/01 09:32:44;;;;;;;5.72;4.40;;;;;;;25.50;60.69;100809.38;4990101;28;20058;-77
2022/09/01 09:35:38;;;;;;;5.38;4.20;;;;;;;25.51;60.68;100816.47;4990315;28;20066;-79
2022/09/01 09:38:30;;;;;;;5.63;4.45;;;;;;;25.49;60.44;100819.38;4989545;28;20050;-78
2022/09/01 09:41:08;;;;;;;5.28;4.70;;;;;;;25.49;60.64;100822.09;4988924;28;20074;-78
2022/09/01 09:43:45;;;;;;;8.18;5.25;;;;;;;25.46;60.47;100818.88;4979167;28;20058;-81
2022/09/01 09:46:37;;;;;;;5.00;4.38;;;;;;;25.43;61.00;100820.06;4987715;28;20397;-79
2022/09/01 09:49:23;;;;;;;9.85;4.72;;;;;;;25.44;61.26;100818.19;5014273;28;20061;-80
2022/09/01 09:52:35;;;;;;;6.20;4.82;;;;;;;25.44;60.65;100815.47;5021830;28;20065;-80
2022/09/01 09:55:18;;;;;;;5.20;4.25;;;;;;;25.42;61.08;100817.53;5014233;28;20045;-82
2022/09/01 09:57:48;;;;;;;4.20;3.80;;;;;;;25.43;60.86;100811.91;5012844;28;20058;-83
2022/09/01 10:00:37;;;;;;;6.75;4.72;;;;;;;25.43;60.09;100811.91;5014271;28;20045;-79
2022/09/01 10:03:09;;;;;;;4.70;3.92;;;;;;;25.44;60.43;100815.47;5043983;27;20486;-83
2022/09/01 10:05:47;;;;;;;7.45;4.60;;;;;;;25.44;60.54;100816.31;5138439;27;20506;-81
2022/09/01 10:08:28;;;;;;;4.97;4.05;;;;;;;25.45;60.27;100806.34;5138152;27;20402;-82
2022/09/01 10:10:56;;;;;;;5.07;3.58;;;;;;;25.44;59.97;100810.88;5138020;27;20050;-82
2022/09/01 10:13:30;;;;;;;4.57;4.00;;;;;;;25.44;59.67;100813.59;5138373;27;20432;-82
2022/09/01 10:16:01;;;;;;;4.78;3.35;;;;;;;25.44;59.82;100808.19;5137781;27;20493;-80
2022/09/01 10:18:38;;;;;;;3.78;3.38;;;;;;;25.45;59.62;100796.34;5138482;27;20067;-80
2022/09/01 10:21:15;;;;;;;5.75;3.83;;;;;;;25.46;59.21;100798.03;5137903;27;20073;-80
2022/09/01 10:23:43;;;;;;;5.05;3.85;;;;;;;25.47;59.22;100790.75;5138068;27;20051;-80
2022/09/01 10:26:18;;;;;;;4.75;3.72;;;;;;;25.48;59.16;100796.00;5137710;27;20047;-84
2022/09/01 10:28:53;;;;;;;8.35;3.78;;;;;;;25.48;58.70;100801.44;5137907;27;20051;-82
2022/09/01 10:31:21;;;;;;;4.60;3.35;;;;;;;25.48;58.92;100800.56;5137438;27;20509;-85
2022/09/01 10:33:49;;;;;;;4.95;2.90;;;;;;;25.49;58.88;100786.84;5137032;27;20043;-81
2022/09/01 10:36:18;;;;;;;5.97;3.53;;;;;;;25.50;58.37;100788.53;5137630;27;20043;-80
2022/09/01 10:38:47;;;;;;;5.32;3.20;;;;;;;25.52;58.81;100791.94;5137859;27;20043;-85
2022/09/01 10:41:50;;;;;;;5.15;3.20;;;;;;;25.54;58.73;100792.59;5137644;27;20394;-82
2022/09/01 10:44:54;;;;;;;5.18;3.10;;;;;;;25.57;58.62;100797.66;5046382;27;20060;-85
2022/09/01 10:47:27;;;;;;;6.90;2.70;;;;;;;25.56;58.59;100798.69;5016589;28;20050;-83
2022/09/01 10:49:58;;;;;;;3.35;2.72;;;;;;;25.58;58.49;100799.34;5012983;28;20050;-84
2022/09/01 10:52:39;;;;;;;5.80;2.70;;;;;;;25.58;58.68;100799.34;5013300;28;20053;-81
2022/09/01 10:55:18;;;;;;;4.35;2.50;;;;;;;25.63;58.42;100809.66;5012635;28;20508;-86
2022/09/01 10:58:07;;;;;;;4.35;2.42;;;;;;;25.65;58.53;100808.50;5011801;28;20073;-86
2022/09/01 11:00:54;;;;;;;2.90;2.15;;;;;;;25.65;57.98;100797.66;5012934;28;20053;-81
2022/09/01 11:03:52;;;;;;;5.97;2.63;;;;;;;25.65;58.01;100797.66;5012935;28;20481;-80
2022/09/01 11:06:31;;;;;;;;;;;;;;;25.67;58.37;100794.75;5012563;27;20054;-78
2022/09/01 11:09:04;;;;;;;4.72;2.33;;;;;;;25.68;58.64;100790.16;5012620;28;19921;-79
2022/09/01 11:11:48;;;;;;;4.28;2.35;;;;;;;25.70;58.44;100777.28;5012179;28;20060;-79
2022/09/01 11:14:21;;;;;;;3.83;2.58;;;;;;;25.69;58.18;100781.88;5012735;28;20061;-88
2022/09/01 11:17:11;;;;;;;4.32;2.80;;;;;;;25.70;57.56;100791.69;5012720;28;20049;-86
2022/09/01 11:19:42;;;;;;;2.60;2.10;;;;;;;25.70;57.42;100785.44;5012389;28;20061;-82
2022/09/01 11:22:22;;;;;;;5.13;2.75;;;;;;;25.71;57.74;100787.13;4973574;28;20047;-80
2022/09/01 11:25:07;;;;;;;3.60;2.35;;;;;;;25.72;57.87;100786.09;4973643;28;20495;-79
2022/09/01 11:27:47;;;;;;;4.72;2.28;;;;;;;25.72;57.97;100794.22;4973711;28;20051;-82
2022/09/01 11:30:19;;;;;;;5.97;2.55;;;;;;;25.72;57.81;100797.78;4973751;28;20039;-79
2022/09/01 11:32:51;;;;;;;4.18;2.47;;;;;;;25.72;57.57;100788.78;4994663;28;20050;-80
2022/09/01 11:35:21;;;;;;;4.18;2.22;;;;;;;25.72;57.00;100791.50;4992837;28;20501;-81
2022/09/01 11:37:53;;;;;;;5.05;2.50;;;;;;;25.73;57.00;100790.50;4991463;28;20061;-85
2022/09/01 11:40:28;;;;;;;4.22;2.40;;;;;;;25.73;57.27;100799.47;5047337;28;20391;-82
2022/09/01 11:43:10;;;;;;;3.63;2.53;;;;;;;25.73;57.73;100790.50;5069477;28;20046;-78
2022/09/01 11:46:20;;;;;;;4.97;2.40;;;;;;;25.72;57.52;100786.94;5007834;28;20051;-82
2022/09/01 11:48:48;;;;;;;7.93;2.97;;;;;;;25.73;57.60;100793.22;4991082;28;20043;-80
2022/09/01 11:51:20;;;;;;;5.75;2.42;;;;;;;25.73;57.69;100787.78;4973386;28;20043;-86
2022/09/01 11:53:49;;;;;;;6.10;2.85;;;;;;;25.75;58.00;100800.13;4973379;28;20039;-83
2022/09/01 11:56:23;;;;;;;5.72;2.65;;;;;;;25.74;57.23;100787.59;4974640;28;20798;-85
2022/09/01 11:58:51;;;;;;;3.80;2.58;;;;;;;25.74;56.57;100792.19;4975303;28;20073;-82
2022/09/01 12:01:20;;;;;;;4.20;2.63;;;;;;;25.76;56.47;100795.56;4974501;28;20050;-89
2022/09/01 12:03:50;;;;;;;6.07;2.58;;;;;;;25.78;56.72;100796.28;4974216;28;20042;-79
2022/09/01 12:06:22;;;;;;;3.40;2.80;;;;;;;25.78;56.06;100790.84;4973944;28;20049;-82
2022/09/01 12:09:07;;;;;;;3.92;2.53;;;;;;;25.82;56.42;100797.63;4973995;28;20054;-85